sensor_id;sensor_type;location;lat;lon;timestamp;pressure;altitude;pressure_sealevel;temperature;humidity
967;BME280;56108;48.730;9.304;2024-03-08T00:01:00;97424.22;;;1.75;100.00
967;BME280;56108;48.730;9.304;2024-03-08T00:03:09;97421.09;;;1.66;100.00
967;BME280;56108;48.730;9.304;2024-03-08T00:05:15;97417.09;;;1.79;100.00
967;BME280;56108;48.730;9.304;2024-03-08T00:07:24;97419.16;;;1.94;100.00
967;BME280;56108;48.730;9.304;2024-03-08T00:09:33;97413.75;;;1.99;100.00
967;BME280;56108;48.730;9.304;2024-03-08T00:11:44;97423.16;;;2.04;100.00
967;BME280;56108;48.730;9.304;2024-03-08T00:13:52;97417.03;;;2.04;100.00
967;BME280;56108;48.730;9.304;2024-03-08T00:16:00;97416.84;;;2.08;100.00
967;BME280;56108;48.730;9.304;2024-03-08T00:18:08;97411.97;;;1.99;100.00
967;BME280;56108;48.730;9.304;2024-03-08T00:20:17;97410.13;;;2.01;100.00
967;BME280;56108;48.730;9.304;2024-03-08T00:22:25;97413.53;;;2.03;100.00
967;BME280;56108;48.730;9.304;2024-03-08T00:24:35;97410.13;;;2.01;100.00
967;BME280;56108;48.730;9.304;2024-03-08T00:26:46;97419.19;;;1.93;100.00
967;BME280;56108;48.730;9.304;2024-03-08T00:28:54;97410.44;;;1.94;100.00
967;BME280;56108;48.730;9.304;2024-03-08T00:31:03;97408.84;;;1.90;100.00
967;BME280;56108;48.730;9.304;2024-03-08T00:33:11;97408.41;;;1.77;100.00
967;BME280;56108;48.730;9.304;2024-03-08T00:35:20;97405.88;;;1.75;100.00
967;BME280;56108;48.730;9.304;2024-03-08T00:37:25;97403.41;;;1.71;100.00
967;BME280;56108;48.730;9.304;2024-03-08T00:39:33;97394.50;;;1.75;100.00
967;BME280;56108;48.730;9.304;2024-03-08T00:41:41;97401.38;;;1.79;100.00
967;BME280;56108;48.730;9.304;2024-03-08T00:43:52;97401.63;;;1.71;100.00
967;BME280;56108;48.730;9.304;2024-03-08T00:46:00;97394.59;;;1.73;100.00
967;BME280;56108;48.730;9.304;2024-03-08T00:48:08;97394.44;;;1.76;100.00
967;BME280;56108;48.730;9.304;2024-03-08T00:50:17;97388.88;;;1.86;100.00
967;BME280;56108;48.730;9.304;2024-03-08T00:52:25;97398.50;;;1.85;100.00
967;BME280;56108;48.730;9.304;2024-03-08T00:54:33;97391.56;;;1.84;100.00
967;BME280;56108;48.730;9.304;2024-03-08T00:56:41;97395.19;;;1.80;100.00
967;BME280;56108;48.730;9.304;2024-03-08T00:58:53;97392.75;;;1.75;100.00
967;BME280;56108;48.730;9.304;2024-03-08T01:01:02;97389.38;;;1.72;100.00
967;BME280;56108;48.730;9.304;2024-03-08T01:03:10;97384.25;;;1.69;100.00
967;BME280;56108;48.730;9.304;2024-03-08T01:05:18;97376.31;;;1.70;100.00
967;BME280;56108;48.730;9.304;2024-03-08T01:07:26;97376.66;;;1.61;100.00
967;BME280;56108;48.730;9.304;2024-03-08T01:09:34;97371.53;;;1.58;100.00
967;BME280;56108;48.730;9.304;2024-03-08T01:11:43;97372.94;;;1.67;100.00
967;BME280;56108;48.730;9.304;2024-03-08T01:13:52;97366.16;;;1.61;100.00
967;BME280;56108;48.730;9.304;2024-03-08T01:16:00;97368.19;;;1.54;100.00
967;BME280;56108;48.730;9.304;2024-03-08T01:18:08;97365.56;;;1.54;100.00
967;BME280;56108;48.730;9.304;2024-03-08T01:20:17;97371.53;;;1.58;100.00
967;BME280;56108;48.730;9.304;2024-03-08T01:22:26;97367.16;;;1.59;100.00
967;BME280;56108;48.730;9.304;2024-03-08T01:24:34;97361.16;;;1.55;100.00
967;BME280;56108;48.730;9.304;2024-03-08T01:26:42;97363.84;;;1.53;100.00
967;BME280;56108;48.730;9.304;2024-03-08T01:28:53;97358.47;;;1.56;100.00
967;BME280;56108;48.730;9.304;2024-03-08T01:31:01;97354.03;;;1.59;100.00
967;BME280;56108;48.730;9.304;2024-03-08T01:33:09;97350.66;;;1.55;100.00
967;BME280;56108;48.730;9.304;2024-03-08T01:35:17;97341.84;;;1.58;100.00
967;BME280;56108;48.730;9.304;2024-03-08T01:37:27;97355.50;;;1.66;100.00
967;BME280;56108;48.730;9.304;2024-03-08T01:39:35;97348.47;;;1.68;100.00
967;BME280;56108;48.730;9.304;2024-03-08T01:41:43;97352.88;;;1.66;100.00
967;BME280;56108;48.730;9.304;2024-03-08T01:43:54;97346.03;;;1.62;100.00
967;BME280;56108;48.730;9.304;2024-03-08T01:46:03;97343.41;;;1.62;100.00
967;BME280;56108;48.730;9.304;2024-03-08T01:48:11;97333.16;;;1.55;100.00
967;BME280;56108;48.730;9.304;2024-03-08T01:50:17;97336.72;;;1.54;100.00
967;BME280;56108;48.730;9.304;2024-03-08T01:52:25;97335.09;;;1.50;100.00
967;BME280;56108;48.730;9.304;2024-03-08T01:54:34;97328.22;;;1.48;100.00
967;BME280;56108;48.730;9.304;2024-03-08T01:56:42;97325.66;;;1.46;100.00
967;BME280;56108;48.730;9.304;2024-03-08T01:58:54;97321.13;;;1.50;100.00
967;BME280;56108;48.730;9.304;2024-03-08T02:01:03;97315.91;;;1.50;100.00
967;BME280;56108;48.730;9.304;2024-03-08T02:03:11;97309.19;;;1.43;100.00
967;BME280;56108;48.730;9.304;2024-03-08T02:05:19;97308.50;;;1.38;100.00
967;BME280;56108;48.730;9.304;2024-03-08T02:07:28;97308.28;;;1.44;100.00
967;BME280;56108;48.730;9.304;2024-03-08T02:09:37;97304.22;;;1.35;100.00
967;BME280;56108;48.730;9.304;2024-03-08T02:11:45;97309.53;;;1.34;100.00
967;BME280;56108;48.730;9.304;2024-03-08T02:13:56;97300.97;;;1.28;100.00
967;BME280;56108;48.730;9.304;2024-03-08T02:16:05;97300.19;;;1.26;100.00
967;BME280;56108;48.730;9.304;2024-03-08T02:18:14;97296.34;;;1.35;100.00
967;BME280;56108;48.730;9.304;2024-03-08T02:20:22;97291.31;;;1.30;100.00
967;BME280;56108;48.730;9.304;2024-03-08T02:22:33;97291.41;;;1.27;100.00
967;BME280;56108;48.730;9.304;2024-03-08T02:24:41;97290.63;;;1.25;100.00
967;BME280;56108;48.730;9.304;2024-03-08T02:26:49;97293.94;;;1.30;100.00
967;BME280;56108;48.730;9.304;2024-03-08T02:28:58;97290.38;;;1.32;100.00
967;BME280;56108;48.730;9.304;2024-03-08T02:31:07;97280.06;;;1.27;100.00
967;BME280;56108;48.730;9.304;2024-03-08T02:33:16;97268.22;;;1.17;100.00
967;BME280;56108;48.730;9.304;2024-03-08T02:35:24;97276.84;;;1.20;100.00
967;BME280;56108;48.730;9.304;2024-03-08T02:37:35;97276.44;;;1.31;100.00
967;BME280;56108;48.730;9.304;2024-03-08T02:39:43;97280.00;;;1.28;100.00
967;BME280;56108;48.730;9.304;2024-03-08T02:41:52;97280.91;;;1.27;100.00
967;BME280;56108;48.730;9.304;2024-03-08T02:44:00;97272.53;;;1.18;100.00
967;BME280;56108;48.730;9.304;2024-03-08T02:46:09;97272.16;;;1.05;100.00
967;BME280;56108;48.730;9.304;2024-03-08T02:48:17;97266.72;;;1.10;100.00
967;BME280;56108;48.730;9.304;2024-03-08T02:50:26;97276.16;;;1.15;100.00
967;BME280;56108;48.730;9.304;2024-03-08T02:52:36;97267.38;;;1.16;100.00
967;BME280;56108;48.730;9.304;2024-03-08T02:54:47;97265.75;;;1.12;100.00
967;BME280;56108;48.730;9.304;2024-03-08T02:56:55;97264.16;;;1.08;100.00
967;BME280;56108;48.730;9.304;2024-03-08T02:59:03;97267.63;;;1.09;100.00
967;BME280;56108;48.730;9.304;2024-03-08T03:01:11;97264.31;;;1.05;100.00
967;BME280;56108;48.730;9.304;2024-03-08T03:03:20;97260.69;;;1.08;100.00
967;BME280;56108;48.730;9.304;2024-03-08T03:05:28;97256.78;;;0.96;100.00
967;BME280;56108;48.730;9.304;2024-03-08T03:07:43;97257.56;;;0.98;100.00
967;BME280;56108;48.730;9.304;2024-03-08T03:09:52;97251.63;;;0.93;100.00
967;BME280;56108;48.730;9.304;2024-03-08T03:12:00;97249.81;;;0.95;100.00
967;BME280;56108;48.730;9.304;2024-03-08T03:14:11;97241.16;;;0.93;100.00
967;BME280;56108;48.730;9.304;2024-03-08T03:16:21;97243.25;;;0.83;100.00
967;BME280;56108;48.730;9.304;2024-03-08T03:18:29;97245.75;;;0.86;100.00
967;BME280;56108;48.730;9.304;2024-03-08T03:20:38;97246.84;;;0.81;100.00
967;BME280;56108;48.730;9.304;2024-03-08T03:22:53;97239.94;;;0.78;100.00
967;BME280;56108;48.730;9.304;2024-03-08T03:25:03;97239.16;;;0.76;100.00
967;BME280;56108;48.730;9.304;2024-03-08T03:27:11;97237.50;;;0.73;100.00
967;BME280;56108;48.730;9.304;2024-03-08T03:29:23;97229.69;;;0.72;100.00
967;BME280;56108;48.730;9.304;2024-03-08T03:31:32;97223.75;;;0.67;100.00
967;BME280;56108;48.730;9.304;2024-03-08T03:33:41;97219.34;;;0.69;100.00
967;BME280;56108;48.730;9.304;2024-03-08T03:35:58;97219.66;;;0.60;100.00
967;BME280;56108;48.730;9.304;2024-03-08T03:38:12;97213.06;;;0.49;100.00
967;BME280;56108;48.730;9.304;2024-03-08T03:40:22;97213.91;;;0.50;100.00
967;BME280;56108;48.730;9.304;2024-03-08T03:42:28;97211.38;;;0.47;100.00
967;BME280;56108;48.730;9.304;2024-03-08T03:44:36;97214.69;;;0.52;100.00
967;BME280;56108;48.730;9.304;2024-03-08T03:46:44;97208.50;;;0.55;100.00
967;BME280;56108;48.730;9.304;2024-03-08T03:48:50;97208.81;;;0.45;100.00
967;BME280;56108;48.730;9.304;2024-03-08T03:51:00;97195.28;;;0.34;100.00
967;BME280;56108;48.730;9.304;2024-03-08T03:53:11;97192.50;;;0.39;100.00
967;BME280;56108;48.730;9.304;2024-03-08T03:55:22;97203.50;;;0.48;100.00
967;BME280;56108;48.730;9.304;2024-03-08T03:57:30;97195.41;;;0.55;100.00
967;BME280;56108;48.730;9.304;2024-03-08T03:59:38;97193.66;;;0.55;100.00
967;BME280;56108;48.730;9.304;2024-03-08T04:01:47;97203.44;;;0.50;100.00
967;BME280;56108;48.730;9.304;2024-03-08T04:03:55;97195.63;;;0.48;100.00
967;BME280;56108;48.730;9.304;2024-03-08T04:06:04;97203.72;;;0.42;100.00
967;BME280;56108;48.730;9.304;2024-03-08T04:08:15;97195.66;;;0.47;100.00
967;BME280;56108;48.730;9.304;2024-03-08T04:10:26;97197.44;;;0.46;100.00
967;BME280;56108;48.730;9.304;2024-03-08T04:12:34;97193.19;;;0.44;100.00
967;BME280;56108;48.730;9.304;2024-03-08T04:14:43;97188.78;;;0.44;100.00
967;BME280;56108;48.730;9.304;2024-03-08T04:16:51;97187.66;;;0.51;100.00
967;BME280;56108;48.730;9.304;2024-03-08T04:18:59;97194.72;;;0.49;100.00
967;BME280;56108;48.730;9.304;2024-03-08T04:21:09;97192.34;;;0.43;100.00
967;BME280;56108;48.730;9.304;2024-03-08T04:23:20;97187.19;;;0.40;100.00
967;BME280;56108;48.730;9.304;2024-03-08T04:25:28;97187.19;;;0.40;100.00
967;BME280;56108;48.730;9.304;2024-03-08T04:27:33;97185.16;;;0.48;100.00
967;BME280;56108;48.730;9.304;2024-03-08T04:29:41;97187.03;;;0.45;100.00
967;BME280;56108;48.730;9.304;2024-03-08T04:31:49;97178.16;;;0.49;100.00
967;BME280;56108;48.730;9.304;2024-03-08T04:33:59;97178.31;;;0.44;100.00
967;BME280;56108;48.730;9.304;2024-03-08T04:36:07;97170.53;;;0.43;100.00
967;BME280;56108;48.730;9.304;2024-03-08T04:38:24;97171.31;;;0.45;100.00
967;BME280;56108;48.730;9.304;2024-03-08T04:40:32;97175.03;;;0.39;100.00
967;BME280;56108;48.730;9.304;2024-03-08T04:42:42;97178.56;;;0.38;100.00
967;BME280;56108;48.730;9.304;2024-03-08T04:44:50;97171.88;;;0.30;100.00
967;BME280;56108;48.730;9.304;2024-03-08T04:46:59;97166.00;;;0.23;100.00
967;BME280;56108;48.730;9.304;2024-03-08T04:49:05;97163.34;;;0.24;100.00
967;BME280;56108;48.730;9.304;2024-03-08T04:51:13;97168.31;;;0.32;100.00
967;BME280;56108;48.730;9.304;2024-03-08T04:53:24;97167.31;;;0.35;100.00
967;BME280;56108;48.730;9.304;2024-03-08T04:55:32;97168.47;;;0.28;100.00
967;BME280;56108;48.730;9.304;2024-03-08T04:57:40;97169.47;;;0.23;100.00
967;BME280;56108;48.730;9.304;2024-03-08T04:59:51;97159.09;;;0.20;100.00
967;BME280;56108;48.730;9.304;2024-03-08T05:01:59;97154.91;;;0.16;100.00
967;BME280;56108;48.730;9.304;2024-03-08T05:04:07;97158.38;;;0.17;100.00
967;BME280;56108;48.730;9.304;2024-03-08T05:06:15;97152.22;;;0.18;100.00
967;BME280;56108;48.730;9.304;2024-03-08T05:08:28;97149.84;;;0.12;100.00
967;BME280;56108;48.730;9.304;2024-03-08T05:10:37;97151.59;;;0.11;100.00
967;BME280;56108;48.730;9.304;2024-03-08T05:12:45;97148.94;;;0.13;100.00
967;BME280;56108;48.730;9.304;2024-03-08T05:14:53;97145.47;;;0.12;100.00
967;BME280;56108;48.730;9.304;2024-03-08T05:16:59;97142.03;;;0.10;100.00
967;BME280;56108;48.730;9.304;2024-03-08T05:19:06;97148.28;;;0.06;100.00
967;BME280;56108;48.730;9.304;2024-03-08T05:21:12;97142.91;;;0.11;100.00
967;BME280;56108;48.730;9.304;2024-03-08T05:23:22;97138.53;;;0.11;100.00
967;BME280;56108;48.730;9.304;2024-03-08T05:25:32;97139.47;;;0.09;100.00
967;BME280;56108;48.730;9.304;2024-03-08T05:27:38;97140.31;;;0.09;100.00
967;BME280;56108;48.730;9.304;2024-03-08T05:29:48;97142.91;;;0.11;100.00
967;BME280;56108;48.730;9.304;2024-03-08T05:31:53;97135.09;;;0.09;100.00
967;BME280;56108;48.730;9.304;2024-03-08T05:34:03;97136.28;;;0.01;100.00
967;BME280;56108;48.730;9.304;2024-03-08T05:36:15;97134.56;;;-0.01;100.00
967;BME280;56108;48.730;9.304;2024-03-08T05:38:24;97129.38;;;-0.02;100.00
967;BME280;56108;48.730;9.304;2024-03-08T05:40:35;97128.38;;;0.02;100.00
967;BME280;56108;48.730;9.304;2024-03-08T05:42:43;97123.69;;;0.12;100.00
967;BME280;56108;48.730;9.304;2024-03-08T05:44:51;97130.88;;;0.05;100.00
967;BME280;56108;48.730;9.304;2024-03-08T05:47:02;97131.75;;;0.06;100.00
967;BME280;56108;48.730;9.304;2024-03-08T05:49:12;97124.53;;;0.12;100.00
967;BME280;56108;48.730;9.304;2024-03-08T05:51:20;97122.00;;;0.09;100.00
967;BME280;56108;48.730;9.304;2024-03-08T05:53:26;97123.72;;;0.10;100.00
967;BME280;56108;48.730;9.304;2024-03-08T05:55:39;97119.38;;;0.09;100.00
967;BME280;56108;48.730;9.304;2024-03-08T05:57:47;97125.38;;;0.13;100.00
967;BME280;56108;48.730;9.304;2024-03-08T05:59:55;97125.38;;;0.13;100.00
967;BME280;56108;48.730;9.304;2024-03-08T06:02:03;97123.38;;;0.19;100.00
967;BME280;56108;48.730;9.304;2024-03-08T06:04:11;97138.25;;;0.19;100.00
967;BME280;56108;48.730;9.304;2024-03-08T06:06:19;97133.75;;;0.22;100.00
967;BME280;56108;48.730;9.304;2024-03-08T06:08:27;97134.31;;;0.31;100.00
967;BME280;56108;48.730;9.304;2024-03-08T06:10:39;97134.47;;;0.26;100.00
967;BME280;56108;48.730;9.304;2024-03-08T06:12:47;97134.38;;;0.29;100.00
967;BME280;56108;48.730;9.304;2024-03-08T06:14:53;97136.69;;;0.38;100.00
967;BME280;56108;48.730;9.304;2024-03-08T06:17:01;97141.00;;;0.39;100.00
967;BME280;56108;48.730;9.304;2024-03-08T06:19:11;97141.97;;;0.37;100.00
967;BME280;56108;48.730;9.304;2024-03-08T06:21:19;97143.63;;;0.39;100.00
967;BME280;56108;48.730;9.304;2024-03-08T06:23:27;97146.97;;;0.43;100.00
967;BME280;56108;48.730;9.304;2024-03-08T06:25:36;97149.59;;;0.43;100.00
967;BME280;56108;48.730;9.304;2024-03-08T06:27:46;97149.47;;;0.46;100.00
967;BME280;56108;48.730;9.304;2024-03-08T06:29:54;97149.94;;;0.57;100.00
967;BME280;56108;48.730;9.304;2024-03-08T06:32:03;97153.19;;;0.64;100.00
967;BME280;56108;48.730;9.304;2024-03-08T06:34:11;97159.16;;;0.67;100.00
967;BME280;56108;48.730;9.304;2024-03-08T06:36:20;97165.13;;;0.71;100.00
967;BME280;56108;48.730;9.304;2024-03-08T06:38:28;97168.34;;;0.79;100.00
967;BME280;56108;48.730;9.304;2024-03-08T06:40:37;97168.28;;;0.81;100.00
967;BME280;56108;48.730;9.304;2024-03-08T06:42:48;97165.41;;;0.87;100.00
967;BME280;56108;48.730;9.304;2024-03-08T06:44:56;97160.78;;;0.93;100.00
967;BME280;56108;48.730;9.304;2024-03-08T06:47:09;97163.06;;;1.02;100.00
967;BME280;56108;48.730;9.304;2024-03-08T06:49:17;97170.91;;;1.02;100.00
967;BME280;56108;48.730;9.304;2024-03-08T06:51:25;97173.47;;;1.04;100.00
967;BME280;56108;48.730;9.304;2024-03-08T06:53:33;97166.25;;;1.11;100.00
967;BME280;56108;48.730;9.304;2024-03-08T06:55:44;97172.28;;;1.13;100.00
967;BME280;56108;48.730;9.304;2024-03-08T06:57:52;97171.25;;;1.17;100.00
967;BME280;56108;48.730;9.304;2024-03-08T07:00:00;97173.72;;;1.20;100.00
967;BME280;56108;48.730;9.304;2024-03-08T07:02:09;97180.81;;;1.40;100.00
967;BME280;56108;48.730;9.304;2024-03-08T07:04:17;97180.72;;;1.43;100.00
967;BME280;56108;48.730;9.304;2024-03-08T07:06:26;97176.41;;;1.42;100.00
967;BME280;56108;48.730;9.304;2024-03-08T07:08:33;97182.97;;;1.52;100.00
967;BME280;56108;48.730;9.304;2024-03-08T07:10:41;97173.88;;;1.61;100.00
967;BME280;56108;48.730;9.304;2024-03-08T07:12:52;97177.47;;;1.58;100.00
967;BME280;56108;48.730;9.304;2024-03-08T07:15:00;97176.22;;;1.67;100.00
967;BME280;56108;48.730;9.304;2024-03-08T07:17:08;97173.16;;;1.57;100.00
967;BME280;56108;48.730;9.304;2024-03-08T07:19:17;97167.50;;;1.66;100.00
967;BME280;56108;48.730;9.304;2024-03-08T07:21:26;97165.69;;;1.68;100.00
967;BME280;56108;48.730;9.304;2024-03-08T07:23:34;97162.41;;;1.63;100.00
967;BME280;56108;48.730;9.304;2024-03-08T07:25:55;97164.84;;;1.68;100.00
967;BME280;56108;48.730;9.304;2024-03-08T07:28:06;97158.91;;;1.85;100.00
967;BME280;56108;48.730;9.304;2024-03-08T07:30:17;97162.50;;;1.82;100.00
967;BME280;56108;48.730;9.304;2024-03-08T07:32:38;97167.63;;;1.85;100.00
967;BME280;56108;48.730;9.304;2024-03-08T07:34:47;97167.25;;;1.94;100.00
967;BME280;56108;48.730;9.304;2024-03-08T07:36:55;97159.63;;;2.08;100.00
967;BME280;56108;48.730;9.304;2024-03-08T07:39:04;97169.72;;;2.18;100.00
967;BME280;56108;48.730;9.304;2024-03-08T07:41:16;97169.72;;;2.18;100.00
967;BME280;56108;48.730;9.304;2024-03-08T07:43:27;97165.94;;;2.04;100.00
967;BME280;56108;48.730;9.304;2024-03-08T07:45:36;97169.81;;;2.16;100.00
967;BME280;56108;48.730;9.304;2024-03-08T07:47:44;97168.63;;;2.23;100.00
967;BME280;56108;48.730;9.304;2024-03-08T07:49:52;97162.91;;;2.14;100.00
967;BME280;56108;48.730;9.304;2024-03-08T07:51:59;97155.84;;;2.16;100.00
967;BME280;56108;48.730;9.304;2024-03-08T07:54:09;97160.41;;;2.31;100.00
967;BME280;56108;48.730;9.304;2024-03-08T07:56:18;97159.41;;;2.33;100.00
967;BME280;56108;48.730;9.304;2024-03-08T07:58:29;97151.34;;;2.18;100.00
967;BME280;56108;48.730;9.304;2024-03-08T08:00:39;97156.47;;;2.41;100.00
967;BME280;56108;48.730;9.304;2024-03-08T08:02:48;97157.13;;;2.26;100.00
967;BME280;56108;48.730;9.304;2024-03-08T08:04:56;97164.09;;;2.27;100.00
967;BME280;56108;48.730;9.304;2024-03-08T08:07:04;97153.25;;;2.34;100.00
967;BME280;56108;48.730;9.304;2024-03-08T08:09:12;97154.50;;;2.26;100.00
967;BME280;56108;48.730;9.304;2024-03-08T08:11:27;97151.50;;;2.35;100.00
967;BME280;56108;48.730;9.304;2024-03-08T08:13:38;97149.66;;;2.37;100.00
967;BME280;56108;48.730;9.304;2024-03-08T08:15:48;97148.06;;;2.33;100.00
967;BME280;56108;48.730;9.304;2024-03-08T08:17:56;97156.66;;;2.37;100.00
967;BME280;56108;48.730;9.304;2024-03-08T08:20:05;97148.78;;;2.37;100.00
967;BME280;56108;48.730;9.304;2024-03-08T08:22:13;97150.38;;;2.41;100.00
967;BME280;56108;48.730;9.304;2024-03-08T08:24:23;97150.53;;;2.56;100.00
967;BME280;56108;48.730;9.304;2024-03-08T08:26:31;97138.53;;;2.70;100.00
967;BME280;56108;48.730;9.304;2024-03-08T08:28:47;97146.78;;;2.81;100.00
967;BME280;56108;48.730;9.304;2024-03-08T08:30:55;97137.78;;;2.68;100.00
967;BME280;56108;48.730;9.304;2024-03-08T08:33:04;97135.78;;;2.73;100.00
967;BME280;56108;48.730;9.304;2024-03-08T08:35:13;97137.91;;;2.65;100.00
967;BME280;56108;48.730;9.304;2024-03-08T08:37:23;97136.75;;;2.70;100.00
967;BME280;56108;48.730;9.304;2024-03-08T08:39:31;97123.13;;;2.81;100.00
967;BME280;56108;48.730;9.304;2024-03-08T08:41:40;97134.00;;;2.73;100.00
967;BME280;56108;48.730;9.304;2024-03-08T08:43:51;97137.50;;;2.74;100.00
967;BME280;56108;48.730;9.304;2024-03-08T08:46:18;97133.03;;;2.95;100.00
967;BME280;56108;48.730;9.304;2024-03-08T08:48:26;97129.47;;;2.77;100.00
967;BME280;56108;48.730;9.304;2024-03-08T08:50:35;97127.75;;;2.76;100.00
967;BME280;56108;48.730;9.304;2024-03-08T08:52:44;97124.72;;;2.85;100.00
967;BME280;56108;48.730;9.304;2024-03-08T08:54:49;97129.16;;;2.64;100.00
967;BME280;56108;48.730;9.304;2024-03-08T08:56:57;97136.00;;;2.87;100.00
967;BME280;56108;48.730;9.304;2024-03-08T08:59:15;97133.66;;;2.81;100.00
967;BME280;56108;48.730;9.304;2024-03-08T09:01:27;97132.88;;;2.79;100.00
967;BME280;56108;48.730;9.304;2024-03-08T09:03:35;97123.00;;;2.84;100.00
967;BME280;56108;48.730;9.304;2024-03-08T09:05:45;97121.78;;;2.91;100.00
967;BME280;56108;48.730;9.304;2024-03-08T09:07:51;97121.44;;;2.99;100.00
967;BME280;56108;48.730;9.304;2024-03-08T09:10:00;97124.25;;;3.13;100.00
967;BME280;56108;48.730;9.304;2024-03-08T09:12:21;97118.53;;;3.24;100.00
967;BME280;56108;48.730;9.304;2024-03-08T09:14:32;97118.28;;;3.28;100.00
967;BME280;56108;48.730;9.304;2024-03-08T09:16:40;97126.47;;;3.22;100.00
967;BME280;56108;48.730;9.304;2024-03-08T09:18:48;97117.53;;;3.44;100.00
967;BME280;56108;48.730;9.304;2024-03-08T09:20:56;97124.09;;;3.35;100.00
967;BME280;56108;48.730;9.304;2024-03-08T09:23:04;97116.31;;;2.96;100.00
967;BME280;56108;48.730;9.304;2024-03-08T09:25:10;97120.97;;;3.27;100.00
967;BME280;56108;48.730;9.304;2024-03-08T09:27:18;97112.84;;;3.50;100.00
967;BME280;56108;48.730;9.304;2024-03-08T09:29:26;97114.00;;;3.62;100.00
967;BME280;56108;48.730;9.304;2024-03-08T09:31:36;97118.44;;;3.61;100.00
967;BME280;56108;48.730;9.304;2024-03-08T09:33:45;97106.22;;;3.78;100.00
967;BME280;56108;48.730;9.304;2024-03-08T09:35:53;97102.06;;;3.55;100.00
967;BME280;56108;48.730;9.304;2024-03-08T09:38:05;97102.97;;;3.36;100.00
967;BME280;56108;48.730;9.304;2024-03-08T09:40:18;97104.56;;;3.22;100.00
967;BME280;56108;48.730;9.304;2024-03-08T09:42:28;97100.97;;;3.24;100.00
967;BME280;56108;48.730;9.304;2024-03-08T09:44:36;97103.31;;;3.48;100.00
967;BME280;56108;48.730;9.304;2024-03-08T09:46:47;97103.47;;;3.45;100.00
967;BME280;56108;48.730;9.304;2024-03-08T09:48:56;97092.13;;;3.79;100.00
967;BME280;56108;48.730;9.304;2024-03-08T09:51:06;97096.13;;;3.86;100.00
967;BME280;56108;48.730;9.304;2024-03-08T09:53:18;97095.53;;;3.98;100.00
967;BME280;56108;48.730;9.304;2024-03-08T09:55:27;97099.53;;;4.05;100.00
967;BME280;56108;48.730;9.304;2024-03-08T09:57:45;97094.13;;;4.08;100.00
967;BME280;56108;48.730;9.304;2024-03-08T10:00:15;97086.84;;;3.96;100.00
967;BME280;56108;48.730;9.304;2024-03-08T10:02:33;97086.22;;;3.91;100.00
967;BME280;56108;48.730;9.304;2024-03-08T10:04:43;97084.72;;;4.20;100.00
967;BME280;56108;48.730;9.304;2024-03-08T10:06:51;97084.81;;;4.52;100.00
967;BME280;56108;48.730;9.304;2024-03-08T10:09:01;97090.22;;;4.82;100.00
967;BME280;56108;48.730;9.304;2024-03-08T10:11:11;97083.50;;;4.43;100.00
967;BME280;56108;48.730;9.304;2024-03-08T10:13:19;97088.16;;;4.71;100.00
967;BME280;56108;48.730;9.304;2024-03-08T10:15:27;97089.13;;;4.53;100.00
967;BME280;56108;48.730;9.304;2024-03-08T10:17:40;97087.28;;;4.55;100.00
967;BME280;56108;48.730;9.304;2024-03-08T10:19:52;97078.19;;;4.27;100.00
967;BME280;56108;48.730;9.304;2024-03-08T10:22:00;97081.06;;;4.23;100.00
967;BME280;56108;48.730;9.304;2024-03-08T10:24:10;97070.84;;;4.16;100.00
967;BME280;56108;48.730;9.304;2024-03-08T10:26:18;97069.16;;;4.49;100.00
967;BME280;56108;48.730;9.304;2024-03-08T10:28:27;97077.38;;;4.76;100.00
967;BME280;56108;48.730;9.304;2024-03-08T10:30:35;97078.13;;;4.78;100.00
967;BME280;56108;48.730;9.304;2024-03-08T10:32:45;97073.34;;;4.84;100.00
967;BME280;56108;48.730;9.304;2024-03-08T10:34:53;97067.69;;;4.76;100.00
967;BME280;56108;48.730;9.304;2024-03-08T10:37:04;97062.75;;;4.70;100.00
967;BME280;56108;48.730;9.304;2024-03-08T10:39:22;97052.25;;;4.53;100.00
967;BME280;56108;48.730;9.304;2024-03-08T10:41:31;97043.59;;;4.82;100.00
967;BME280;56108;48.730;9.304;2024-03-08T10:43:52;97060.16;;;4.68;100.00
967;BME280;56108;48.730;9.304;2024-03-08T10:46:06;97050.31;;;5.04;100.00
967;BME280;56108;48.730;9.304;2024-03-08T10:48:27;97042.53;;;5.32;100.00
967;BME280;56108;48.730;9.304;2024-03-08T10:50:43;97051.91;;;5.38;100.00
967;BME280;56108;48.730;9.304;2024-03-08T10:52:57;97052.47;;;4.97;100.00
967;BME280;56108;48.730;9.304;2024-03-08T10:55:07;97047.66;;;5.35;100.00
967;BME280;56108;48.730;9.304;2024-03-08T10:57:18;97051.16;;;5.96;100.00
967;BME280;56108;48.730;9.304;2024-03-08T10:59:29;97054.72;;;5.65;100.00
967;BME280;56108;48.730;9.304;2024-03-08T11:01:38;97048.63;;;5.18;100.00
967;BME280;56108;48.730;9.304;2024-03-08T11:03:49;97048.63;;;4.71;100.00
967;BME280;56108;48.730;9.304;2024-03-08T11:05:58;97055.34;;;4.77;100.00
967;BME280;56108;48.730;9.304;2024-03-08T11:08:16;97044.53;;;4.65;100.00
967;BME280;56108;48.730;9.304;2024-03-08T11:10:26;97040.72;;;4.71;100.00
967;BME280;56108;48.730;9.304;2024-03-08T11:12:36;97037.97;;;5.20;100.00
967;BME280;56108;48.730;9.304;2024-03-08T11:14:45;97032.31;;;5.42;100.00
967;BME280;56108;48.730;9.304;2024-03-08T11:16:54;97026.22;;;5.26;100.00
967;BME280;56108;48.730;9.304;2024-03-08T11:19:22;97023.63;;;5.40;100.00
967;BME280;56108;48.730;9.304;2024-03-08T11:21:32;97016.19;;;5.01;100.00
967;BME280;56108;48.730;9.304;2024-03-08T11:23:38;97021.34;;;5.34;100.00
967;BME280;56108;48.730;9.304;2024-03-08T11:25:48;97023.38;;;5.44;100.00
967;BME280;56108;48.730;9.304;2024-03-08T11:28:07;97024.09;;;5.16;100.00
967;BME280;56108;48.730;9.304;2024-03-08T11:30:22;97025.66;;;4.89;100.00
967;BME280;56108;48.730;9.304;2024-03-08T11:32:31;97018.94;;;4.83;100.00
967;BME280;56108;48.730;9.304;2024-03-08T11:34:43;97019.63;;;4.71;100.00
967;BME280;56108;48.730;9.304;2024-03-08T11:36:53;97016.91;;;4.72;100.00
967;BME280;56108;48.730;9.304;2024-03-08T11:39:02;96999.66;;;5.29;100.00
967;BME280;56108;48.730;9.304;2024-03-08T11:41:23;97000.25;;;5.34;100.00
967;BME280;56108;48.730;9.304;2024-03-08T11:43:31;96997.00;;;4.98;100.00
967;BME280;56108;48.730;9.304;2024-03-08T11:45:40;97003.59;;;5.06;100.00